Desert Springs, Nevada Weather observations

Data are for 10 minute period ending at time listed.
 Day   Time    Ave.   Ave.  Ave.  Vector   Max.   Total    Solar   
  of    of     Air    Rel.  Wind   Wind    Wind  Precip.   Rad.    
Year   Day     Temp.  Hum.  Speed  Dir.    Gust                    
2017   (PST)    F      %     mph   deg.    mph     in.     W/m2    
------------------------------------------------------------------- 
  19    5:00   32.0    83   17.0   282     30.0    5.00       0  
  19    6:00   31.0    97   10.0   276     26.0    5.00       0  
  19    7:00   30.0    99    6.0   115     13.0    5.00       0  
  19    8:00   31.0    85    9.0   224     17.0    5.00       2  
  19    9:00   31.0    94    3.0   249      9.0    5.00      36  
  19   10:00   37.0    71    2.0   232     11.0    5.02     203  
  19   11:00   37.0    68    3.0   183     12.0    5.02     331  
  19   12:00   36.0    65   15.0   216     24.0    5.03     528  
  19   13:00   37.0    57   17.0   244     26.0    5.03     450  
  19   14:00   36.0    57   20.0   246     30.0    5.03     268  
  19   15:00   35.0    58   18.0   241     30.0    5.03     131  
  19   16:00   35.0    61   13.0   225     28.0    5.03      84  
  19   17:00   33.0    68    9.0   228     20.0    5.03     137  
  19   18:00   32.0    69    8.0   226     14.0    5.03       8  
  19   19:00   33.0    66   12.0   223     20.0    5.03       0  
  19   20:00   32.0    66    6.0   182     19.0    5.03       0  
  19   21:00   31.0    73    3.0   147     13.0    5.03       0  
  19   22:00   32.0    68    4.0   120      6.0    5.03       0  
  19   23:00   32.0    72    8.0   167     12.0    5.03       0  
  20    0:00   33.0    67   10.0   186     17.0    5.03       0  
  20    1:00   33.0    66   12.0   179     20.0    5.03       0  
  20    2:00   32.0    71    9.0   183     15.0    5.03       0  
  20    3:00   31.0    75    6.0   160     12.0    5.03       0  
  20    4:00   32.0    67   13.0   140     18.0    5.03       0  

Return to Desert Springs, Nevada graphs page.


Western Regional Climate Center,wrcc@dri.edu